sensor_id;sensor_type;location;lat;lon;timestamp;temperature;humidity
7447;DHT22;3765;47.962;7.952;2023-03-11T00:00:47;4.60;68.20
7447;DHT22;3765;47.962;7.952;2023-03-11T00:03:17;4.60;68.20
7447;DHT22;3765;47.962;7.952;2023-03-11T00:05:46;4.50;68.20
7447;DHT22;3765;47.962;7.952;2023-03-11T00:08:16;4.60;68.40
7447;DHT22;3765;47.962;7.952;2023-03-11T00:10:45;4.50;68.40
7447;DHT22;3765;47.962;7.952;2023-03-11T00:13:15;4.60;68.50
7447;DHT22;3765;47.962;7.952;2023-03-11T00:15:45;4.60;68.40
7447;DHT22;3765;47.962;7.952;2023-03-11T00:18:14;4.60;68.30
7447;DHT22;3765;47.962;7.952;2023-03-11T00:20:45;4.60;68.20
7447;DHT22;3765;47.962;7.952;2023-03-11T00:23:14;4.60;68.30
7447;DHT22;3765;47.962;7.952;2023-03-11T00:25:44;4.60;68.30
7447;DHT22;3765;47.962;7.952;2023-03-11T00:28:14;4.70;68.20
7447;DHT22;3765;47.962;7.952;2023-03-11T00:30:44;4.60;68.00
7447;DHT22;3765;47.962;7.952;2023-03-11T00:33:14;4.60;68.10
7447;DHT22;3765;47.962;7.952;2023-03-11T00:35:43;4.60;68.00
7447;DHT22;3765;47.962;7.952;2023-03-11T00:38:13;4.60;68.10
7447;DHT22;3765;47.962;7.952;2023-03-11T00:40:43;4.60;68.00
7447;DHT22;3765;47.962;7.952;2023-03-11T00:43:12;4.50;68.10
7447;DHT22;3765;47.962;7.952;2023-03-11T00:45:42;4.60;68.10
7447;DHT22;3765;47.962;7.952;2023-03-11T00:48:11;4.50;67.80
7447;DHT22;3765;47.962;7.952;2023-03-11T00:50:40;4.50;67.60
7447;DHT22;3765;47.962;7.952;2023-03-11T00:53:09;4.50;67.70
7447;DHT22;3765;47.962;7.952;2023-03-11T00:55:38;4.40;67.70
7447;DHT22;3765;47.962;7.952;2023-03-11T00:58:06;4.40;67.70
7447;DHT22;3765;47.962;7.952;2023-03-11T01:00:34;4.40;67.90
7447;DHT22;3765;47.962;7.952;2023-03-11T01:03:04;4.20;67.80
7447;DHT22;3765;47.962;7.952;2023-03-11T01:05:34;4.10;68.00
7447;DHT22;3765;47.962;7.952;2023-03-11T01:08:02;4.00;68.20
7447;DHT22;3765;47.962;7.952;2023-03-11T01:10:32;4.10;68.30
7447;DHT22;3765;47.962;7.952;2023-03-11T01:13:01;4.20;68.30
7447;DHT22;3765;47.962;7.952;2023-03-11T01:15:30;4.30;68.30
7447;DHT22;3765;47.962;7.952;2023-03-11T01:17:59;4.30;68.10
7447;DHT22;3765;47.962;7.952;2023-03-11T01:20:29;4.40;68.30
7447;DHT22;3765;47.962;7.952;2023-03-11T01:22:57;4.40;67.90
7447;DHT22;3765;47.962;7.952;2023-03-11T01:25:26;4.50;68.00
7447;DHT22;3765;47.962;7.952;2023-03-11T01:27:54;4.30;67.60
7447;DHT22;3765;47.962;7.952;2023-03-11T01:30:24;4.50;67.70
7447;DHT22;3765;47.962;7.952;2023-03-11T01:32:53;4.60;67.70
7447;DHT22;3765;47.962;7.952;2023-03-11T01:35:24;4.60;67.40
7447;DHT22;3765;47.962;7.952;2023-03-11T01:37:54;4.60;67.00
7447;DHT22;3765;47.962;7.952;2023-03-11T01:40:26;4.50;66.90
7447;DHT22;3765;47.962;7.952;2023-03-11T01:42:56;4.50;66.80
7447;DHT22;3765;47.962;7.952;2023-03-11T01:46:01;4.60;66.80
7447;DHT22;3765;47.962;7.952;2023-03-11T01:48:30;4.40;66.80
7447;DHT22;3765;47.962;7.952;2023-03-11T01:51:01;4.40;66.60
7447;DHT22;3765;47.962;7.952;2023-03-11T01:53:45;4.40;66.60
7447;DHT22;3765;47.962;7.952;2023-03-11T01:56:15;4.50;66.50
7447;DHT22;3765;47.962;7.952;2023-03-11T01:58:48;4.50;66.40
7447;DHT22;3765;47.962;7.952;2023-03-11T02:01:22;4.50;66.20
7447;DHT22;3765;47.962;7.952;2023-03-11T02:03:54;4.40;66.30
7447;DHT22;3765;47.962;7.952;2023-03-11T02:06:25;4.40;66.10
7447;DHT22;3765;47.962;7.952;2023-03-11T02:08:57;4.50;66.00
7447;DHT22;3765;47.962;7.952;2023-03-11T02:11:28;4.30;65.90
7447;DHT22;3765;47.962;7.952;2023-03-11T02:14:05;4.20;66.20
7447;DHT22;3765;47.962;7.952;2023-03-11T02:16:36;4.20;65.80
7447;DHT22;3765;47.962;7.952;2023-03-11T02:19:15;4.20;66.20
7447;DHT22;3765;47.962;7.952;2023-03-11T02:21:45;4.20;66.30
7447;DHT22;3765;47.962;7.952;2023-03-11T02:24:20;4.20;65.80
7447;DHT22;3765;47.962;7.952;2023-03-11T02:26:57;4.10;66.00
7447;DHT22;3765;47.962;7.952;2023-03-11T02:29:29;4.20;66.20
7447;DHT22;3765;47.962;7.952;2023-03-11T02:31:59;4.30;66.20
7447;DHT22;3765;47.962;7.952;2023-03-11T02:34:33;4.30;66.00
7447;DHT22;3765;47.962;7.952;2023-03-11T02:37:06;4.30;65.90
7447;DHT22;3765;47.962;7.952;2023-03-11T02:39:36;4.20;65.70
7447;DHT22;3765;47.962;7.952;2023-03-11T02:42:16;4.10;65.90
7447;DHT22;3765;47.962;7.952;2023-03-11T02:44:56;4.10;65.90
7447;DHT22;3765;47.962;7.952;2023-03-11T02:47:27;4.10;65.90
7447;DHT22;3765;47.962;7.952;2023-03-11T02:49:57;4.10;65.80
7447;DHT22;3765;47.962;7.952;2023-03-11T02:52:27;4.10;65.90
7447;DHT22;3765;47.962;7.952;2023-03-11T02:54:57;4.20;65.80
7447;DHT22;3765;47.962;7.952;2023-03-11T02:57:31;4.20;65.60
7447;DHT22;3765;47.962;7.952;2023-03-11T03:00:17;4.10;65.60
7447;DHT22;3765;47.962;7.952;2023-03-11T03:02:47;4.00;65.30
7447;DHT22;3765;47.962;7.952;2023-03-11T03:05:22;3.90;65.20
7447;DHT22;3765;47.962;7.952;2023-03-11T03:08:11;3.90;65.40
7447;DHT22;3765;47.962;7.952;2023-03-11T03:10:42;4.00;65.40
7447;DHT22;3765;47.962;7.952;2023-03-11T03:13:19;3.90;65.00
7447;DHT22;3765;47.962;7.952;2023-03-11T03:15:51;4.00;65.10
7447;DHT22;3765;47.962;7.952;2023-03-11T03:18:20;3.90;65.10
7447;DHT22;3765;47.962;7.952;2023-03-11T03:20:55;3.90;65.10
7447;DHT22;3765;47.962;7.952;2023-03-11T03:23:23;4.00;65.30
7447;DHT22;3765;47.962;7.952;2023-03-11T03:25:57;3.90;65.10
7447;DHT22;3765;47.962;7.952;2023-03-11T03:28:34;3.90;65.10
7447;DHT22;3765;47.962;7.952;2023-03-11T03:31:03;3.80;65.00
7447;DHT22;3765;47.962;7.952;2023-03-11T03:33:35;3.70;64.90
7447;DHT22;3765;47.962;7.952;2023-03-11T03:36:06;3.60;65.20
7447;DHT22;3765;47.962;7.952;2023-03-11T03:38:34;3.80;65.20
7447;DHT22;3765;47.962;7.952;2023-03-11T03:41:05;3.80;65.20
7447;DHT22;3765;47.962;7.952;2023-03-11T03:43:35;3.70;65.30
7447;DHT22;3765;47.962;7.952;2023-03-11T03:46:08;3.80;65.30
7447;DHT22;3765;47.962;7.952;2023-03-11T03:48:37;3.80;65.30
7447;DHT22;3765;47.962;7.952;2023-03-11T03:51:10;3.80;65.20
7447;DHT22;3765;47.962;7.952;2023-03-11T03:53:44;3.70;65.20
7447;DHT22;3765;47.962;7.952;2023-03-11T03:56:15;3.50;65.30
7447;DHT22;3765;47.962;7.952;2023-03-11T03:58:47;3.60;65.50
7447;DHT22;3765;47.962;7.952;2023-03-11T04:01:17;3.50;65.20
7447;DHT22;3765;47.962;7.952;2023-03-11T04:03:51;3.40;65.60
7447;DHT22;3765;47.962;7.952;2023-03-11T04:06:23;3.50;65.70
7447;DHT22;3765;47.962;7.952;2023-03-11T04:08:59;3.40;65.70
7447;DHT22;3765;47.962;7.952;2023-03-11T04:11:31;3.40;65.80
7447;DHT22;3765;47.962;7.952;2023-03-11T04:14:01;3.40;65.80
7447;DHT22;3765;47.962;7.952;2023-03-11T04:16:31;3.20;65.90
7447;DHT22;3765;47.962;7.952;2023-03-11T04:19:01;3.20;66.40
7447;DHT22;3765;47.962;7.952;2023-03-11T04:21:31;3.30;66.70
7447;DHT22;3765;47.962;7.952;2023-03-11T04:24:03;3.20;66.60
7447;DHT22;3765;47.962;7.952;2023-03-11T04:26:33;3.30;66.90
7447;DHT22;3765;47.962;7.952;2023-03-11T04:29:03;3.30;66.70
7447;DHT22;3765;47.962;7.952;2023-03-11T04:31:35;3.10;66.90
7447;DHT22;3765;47.962;7.952;2023-03-11T04:34:04;3.30;67.20
7447;DHT22;3765;47.962;7.952;2023-03-11T04:36:33;3.40;67.30
7447;DHT22;3765;47.962;7.952;2023-03-11T04:39:02;3.20;66.80
7447;DHT22;3765;47.962;7.952;2023-03-11T04:41:31;3.20;66.80
7447;DHT22;3765;47.962;7.952;2023-03-11T04:44:14;3.10;66.90
7447;DHT22;3765;47.962;7.952;2023-03-11T04:46:44;3.10;67.10
7447;DHT22;3765;47.962;7.952;2023-03-11T04:49:15;3.30;67.10
7447;DHT22;3765;47.962;7.952;2023-03-11T04:51:48;3.20;66.80
7447;DHT22;3765;47.962;7.952;2023-03-11T04:54:19;3.10;67.00
7447;DHT22;3765;47.962;7.952;2023-03-11T04:56:48;2.90;66.70
7447;DHT22;3765;47.962;7.952;2023-03-11T04:59:24;3.10;67.30
7447;DHT22;3765;47.962;7.952;2023-03-11T05:01:52;3.20;67.20
7447;DHT22;3765;47.962;7.952;2023-03-11T05:04:23;3.30;67.10
7447;DHT22;3765;47.962;7.952;2023-03-11T05:06:54;3.30;66.70
7447;DHT22;3765;47.962;7.952;2023-03-11T05:09:24;3.20;66.80
7447;DHT22;3765;47.962;7.952;2023-03-11T05:11:52;3.30;66.90
7447;DHT22;3765;47.962;7.952;2023-03-11T05:14:37;3.40;66.80
7447;DHT22;3765;47.962;7.952;2023-03-11T05:17:05;3.40;66.70
7447;DHT22;3765;47.962;7.952;2023-03-11T05:19:36;3.50;66.70
7447;DHT22;3765;47.962;7.952;2023-03-11T05:22:07;3.50;66.50
7447;DHT22;3765;47.962;7.952;2023-03-11T05:24:38;3.50;66.60
7447;DHT22;3765;47.962;7.952;2023-03-11T05:27:09;3.40;66.30
7447;DHT22;3765;47.962;7.952;2023-03-11T05:29:43;3.40;66.10
7447;DHT22;3765;47.962;7.952;2023-03-11T05:32:14;3.30;66.20
7447;DHT22;3765;47.962;7.952;2023-03-11T05:34:42;3.40;66.20
7447;DHT22;3765;47.962;7.952;2023-03-11T05:37:15;3.40;66.10
7447;DHT22;3765;47.962;7.952;2023-03-11T05:39:43;3.40;66.00
7447;DHT22;3765;47.962;7.952;2023-03-11T05:42:14;3.30;65.70
7447;DHT22;3765;47.962;7.952;2023-03-11T05:45:08;3.10;66.00
7447;DHT22;3765;47.962;7.952;2023-03-11T05:47:38;3.00;65.90
7447;DHT22;3765;47.962;7.952;2023-03-11T05:50:11;3.10;66.10
7447;DHT22;3765;47.962;7.952;2023-03-11T05:52:40;3.30;66.30
7447;DHT22;3765;47.962;7.952;2023-03-11T05:55:09;3.40;66.20
7447;DHT22;3765;47.962;7.952;2023-03-11T05:57:52;3.40;66.20
7447;DHT22;3765;47.962;7.952;2023-03-11T06:00:27;3.40;66.00
7447;DHT22;3765;47.962;7.952;2023-03-11T06:02:58;3.40;66.00
7447;DHT22;3765;47.962;7.952;2023-03-11T06:05:28;3.50;66.00
7447;DHT22;3765;47.962;7.952;2023-03-11T06:07:56;3.40;66.00
7447;DHT22;3765;47.962;7.952;2023-03-11T06:10:24;3.40;66.00
7447;DHT22;3765;47.962;7.952;2023-03-11T06:12:53;3.30;66.10
7447;DHT22;3765;47.962;7.952;2023-03-11T06:15:25;3.30;66.10
7447;DHT22;3765;47.962;7.952;2023-03-11T06:17:54;3.40;66.30
7447;DHT22;3765;47.962;7.952;2023-03-11T06:20:25;3.30;66.10
7447;DHT22;3765;47.962;7.952;2023-03-11T06:23:02;3.40;66.20
7447;DHT22;3765;47.962;7.952;2023-03-11T06:25:30;3.30;66.20
7447;DHT22;3765;47.962;7.952;2023-03-11T06:28:02;3.30;66.30
7447;DHT22;3765;47.962;7.952;2023-03-11T06:30:37;3.30;66.30
7447;DHT22;3765;47.962;7.952;2023-03-11T06:33:12;3.20;66.20
7447;DHT22;3765;47.962;7.952;2023-03-11T06:35:42;3.30;66.40
7447;DHT22;3765;47.962;7.952;2023-03-11T06:38:14;3.40;66.30
7447;DHT22;3765;47.962;7.952;2023-03-11T06:40:43;3.40;66.20
7447;DHT22;3765;47.962;7.952;2023-03-11T06:43:12;3.50;66.10
7447;DHT22;3765;47.962;7.952;2023-03-11T06:45:41;3.60;65.90
7447;DHT22;3765;47.962;7.952;2023-03-11T06:48:13;3.70;65.90
7447;DHT22;3765;47.962;7.952;2023-03-11T06:50:44;3.80;65.70
7447;DHT22;3765;47.962;7.952;2023-03-11T06:53:22;3.90;65.50
7447;DHT22;3765;47.962;7.952;2023-03-11T06:56:03;4.00;65.40
7447;DHT22;3765;47.962;7.952;2023-03-11T06:58:37;4.10;65.10
7447;DHT22;3765;47.962;7.952;2023-03-11T07:01:13;4.20;65.00
7447;DHT22;3765;47.962;7.952;2023-03-11T07:03:51;4.20;64.80
7447;DHT22;3765;47.962;7.952;2023-03-11T07:06:25;4.20;64.60
7447;DHT22;3765;47.962;7.952;2023-03-11T07:08:54;4.20;64.50
7447;DHT22;3765;47.962;7.952;2023-03-11T07:11:23;4.20;64.10
7447;DHT22;3765;47.962;7.952;2023-03-11T07:13:52;4.20;63.90
7447;DHT22;3765;47.962;7.952;2023-03-11T07:16:24;4.30;63.80
7447;DHT22;3765;47.962;7.952;2023-03-11T07:18:58;4.30;63.60
7447;DHT22;3765;47.962;7.952;2023-03-11T07:21:37;4.20;63.40
7447;DHT22;3765;47.962;7.952;2023-03-11T07:24:11;4.10;63.30
7447;DHT22;3765;47.962;7.952;2023-03-11T07:26:42;4.10;63.10
7447;DHT22;3765;47.962;7.952;2023-03-11T07:29:12;4.10;62.90
7447;DHT22;3765;47.962;7.952;2023-03-11T07:31:48;4.10;62.60
7447;DHT22;3765;47.962;7.952;2023-03-11T07:34:21;3.90;61.90
7447;DHT22;3765;47.962;7.952;2023-03-11T07:36:50;3.90;62.00
7447;DHT22;3765;47.962;7.952;2023-03-11T07:39:19;3.60;61.80
7447;DHT22;3765;47.962;7.952;2023-03-11T07:41:48;3.80;62.00
7447;DHT22;3765;47.962;7.952;2023-03-11T07:44:20;3.80;61.80
7447;DHT22;3765;47.962;7.952;2023-03-11T07:46:54;3.90;62.00
7447;DHT22;3765;47.962;7.952;2023-03-11T07:49:28;3.90;61.80
7447;DHT22;3765;47.962;7.952;2023-03-11T07:51:59;3.90;62.20
7447;DHT22;3765;47.962;7.952;2023-03-11T07:54:31;3.90;62.00
7447;DHT22;3765;47.962;7.952;2023-03-11T07:57:02;3.90;61.50
7447;DHT22;3765;47.962;7.952;2023-03-11T07:59:33;3.80;61.30
7447;DHT22;3765;47.962;7.952;2023-03-11T08:02:03;3.60;61.60
7447;DHT22;3765;47.962;7.952;2023-03-11T08:04:32;3.90;61.90
7447;DHT22;3765;47.962;7.952;2023-03-11T08:07:03;4.10;61.60
7447;DHT22;3765;47.962;7.952;2023-03-11T08:09:48;3.90;61.00
7447;DHT22;3765;47.962;7.952;2023-03-11T08:12:19;3.90;60.90
7447;DHT22;3765;47.962;7.952;2023-03-11T08:14:49;4.00;61.10
7447;DHT22;3765;47.962;7.952;2023-03-11T08:17:26;4.30;61.10
7447;DHT22;3765;47.962;7.952;2023-03-11T08:19:57;4.40;60.90
7447;DHT22;3765;47.962;7.952;2023-03-11T08:22:28;4.50;60.80
7447;DHT22;3765;47.962;7.952;2023-03-11T08:24:58;4.50;60.80
7447;DHT22;3765;47.962;7.952;2023-03-11T08:27:28;4.60;60.70
7447;DHT22;3765;47.962;7.952;2023-03-11T08:29:58;4.80;60.30
7447;DHT22;3765;47.962;7.952;2023-03-11T08:32:32;4.80;60.20
7447;DHT22;3765;47.962;7.952;2023-03-11T08:35:03;4.80;59.70
7447;DHT22;3765;47.962;7.952;2023-03-11T08:37:34;5.00;59.60
7447;DHT22;3765;47.962;7.952;2023-03-11T08:40:02;4.90;59.60
7447;DHT22;3765;47.962;7.952;2023-03-11T08:42:36;4.80;59.30
7447;DHT22;3765;47.962;7.952;2023-03-11T08:45:05;4.80;59.30
7447;DHT22;3765;47.962;7.952;2023-03-11T08:47:37;4.80;59.30
7447;DHT22;3765;47.962;7.952;2023-03-11T08:50:13;4.80;59.10
7447;DHT22;3765;47.962;7.952;2023-03-11T08:52:41;4.70;58.60
7447;DHT22;3765;47.962;7.952;2023-03-11T08:55:12;4.70;58.50
7447;DHT22;3765;47.962;7.952;2023-03-11T08:57:44;4.60;58.60
7447;DHT22;3765;47.962;7.952;2023-03-11T09:00:15;4.70;58.50
7447;DHT22;3765;47.962;7.952;2023-03-11T09:03:06;4.80;58.30
7447;DHT22;3765;47.962;7.952;2023-03-11T09:05:36;5.20;58.10
7447;DHT22;3765;47.962;7.952;2023-03-11T09:08:07;5.40;57.60
7447;DHT22;3765;47.962;7.952;2023-03-11T09:10:37;5.40;57.50
7447;DHT22;3765;47.962;7.952;2023-03-11T09:13:08;5.50;57.20
7447;DHT22;3765;47.962;7.952;2023-03-11T09:15:44;5.50;56.80
7447;DHT22;3765;47.962;7.952;2023-03-11T09:18:18;5.60;56.80
7447;DHT22;3765;47.962;7.952;2023-03-11T09:20:52;5.50;56.00
7447;DHT22;3765;47.962;7.952;2023-03-11T09:23:25;5.50;55.80
7447;DHT22;3765;47.962;7.952;2023-03-11T09:25:55;5.40;55.60
7447;DHT22;3765;47.962;7.952;2023-03-11T09:28:26;5.40;55.70
7447;DHT22;3765;47.962;7.952;2023-03-11T09:30:57;5.50;55.40
7447;DHT22;3765;47.962;7.952;2023-03-11T09:33:32;5.60;54.50
7447;DHT22;3765;47.962;7.952;2023-03-11T09:36:04;5.70;54.90
7447;DHT22;3765;47.962;7.952;2023-03-11T09:38:35;5.90;53.60
7447;DHT22;3765;47.962;7.952;2023-03-11T09:41:07;6.00;52.10
7447;DHT22;3765;47.962;7.952;2023-03-11T09:43:50;6.10;51.50
7447;DHT22;3765;47.962;7.952;2023-03-11T09:50:13;6.30;50.50
7447;DHT22;3765;47.962;7.952;2023-03-11T09:53:02;6.30;49.40
7447;DHT22;3765;47.962;7.952;2023-03-11T09:55:42;6.00;49.20
7447;DHT22;3765;47.962;7.952;2023-03-11T09:58:18;5.80;48.80
7447;DHT22;3765;47.962;7.952;2023-03-11T10:00:52;5.80;48.80
7447;DHT22;3765;47.962;7.952;2023-03-11T10:03:28;5.60;49.10
7447;DHT22;3765;47.962;7.952;2023-03-11T10:06:27;5.70;49.30
7447;DHT22;3765;47.962;7.952;2023-03-11T10:09:03;5.90;49.20
7447;DHT22;3765;47.962;7.952;2023-03-11T10:11:55;5.90;48.60
7447;DHT22;3765;47.962;7.952;2023-03-11T10:14:44;5.70;48.80
7447;DHT22;3765;47.962;7.952;2023-03-11T10:17:42;5.70;49.60
7447;DHT22;3765;47.962;7.952;2023-03-11T10:20:25;6.00;49.50
7447;DHT22;3765;47.962;7.952;2023-03-11T10:23:12;5.90;49.40
7447;DHT22;3765;47.962;7.952;2023-03-11T10:25:59;6.20;49.80
7447;DHT22;3765;47.962;7.952;2023-03-11T10:28:36;6.40;49.90
7447;DHT22;3765;47.962;7.952;2023-03-11T10:31:18;6.50;49.60
7447;DHT22;3765;47.962;7.952;2023-03-11T10:33:51;6.60;49.50
7447;DHT22;3765;47.962;7.952;2023-03-11T10:36:26;6.60;50.00
7447;DHT22;3765;47.962;7.952;2023-03-11T10:38:59;6.30;49.10
7447;DHT22;3765;47.962;7.952;2023-03-11T10:41:31;6.10;49.10
7447;DHT22;3765;47.962;7.952;2023-03-11T10:44:05;6.20;49.40
7447;DHT22;3765;47.962;7.952;2023-03-11T10:46:36;6.40;49.30
7447;DHT22;3765;47.962;7.952;2023-03-11T10:49:07;6.30;48.60
7447;DHT22;3765;47.962;7.952;2023-03-11T10:51:40;6.40;49.00
7447;DHT22;3765;47.962;7.952;2023-03-11T10:54:20;6.40;48.80
7447;DHT22;3765;47.962;7.952;2023-03-11T10:56:54;6.00;48.50
7447;DHT22;3765;47.962;7.952;2023-03-11T10:59:25;6.40;48.60
7447;DHT22;3765;47.962;7.952;2023-03-11T11:01:56;6.50;49.00
7447;DHT22;3765;47.962;7.952;2023-03-11T11:04:28;6.70;48.70
7447;DHT22;3765;47.962;7.952;2023-03-11T11:06:57;6.80;48.90
7447;DHT22;3765;47.962;7.952;2023-03-11T11:09:27;7.00;48.60
7447;DHT22;3765;47.962;7.952;2023-03-11T11:12:01;7.30;48.40
7447;DHT22;3765;47.962;7.952;2023-03-11T11:14:46;7.40;48.40
7447;DHT22;3765;47.962;7.952;2023-03-11T11:17:18;7.60;48.20
7447;DHT22;3765;47.962;7.952;2023-03-11T11:19:48;7.40;47.30
7447;DHT22;3765;47.962;7.952;2023-03-11T11:22:19;7.30;47.60
7447;DHT22;3765;47.962;7.952;2023-03-11T11:24:51;6.80;47.40
7447;DHT22;3765;47.962;7.952;2023-03-11T11:27:21;7.10;48.00
7447;DHT22;3765;47.962;7.952;2023-03-11T11:30:13;7.30;47.10
7447;DHT22;3765;47.962;7.952;2023-03-11T11:32:42;7.60;47.40
7447;DHT22;3765;47.962;7.952;2023-03-11T11:35:12;7.90;46.70
7447;DHT22;3765;47.962;7.952;2023-03-11T11:37:42;7.90;46.50
7447;DHT22;3765;47.962;7.952;2023-03-11T11:40:23;7.70;46.10
7447;DHT22;3765;47.962;7.952;2023-03-11T11:42:54;7.80;46.50
7447;DHT22;3765;47.962;7.952;2023-03-11T11:45:28;8.10;45.80
7447;DHT22;3765;47.962;7.952;2023-03-11T11:48:02;7.80;45.60
7447;DHT22;3765;47.962;7.952;2023-03-11T11:50:33;7.80;45.40
7447;DHT22;3765;47.962;7.952;2023-03-11T11:53:11;8.00;45.70
7447;DHT22;3765;47.962;7.952;2023-03-11T11:55:47;8.10;45.10
7447;DHT22;3765;47.962;7.952;2023-03-11T11:58:15;8.50;45.40
7447;DHT22;3765;47.962;7.952;2023-03-11T12:00:52;8.60;44.80
7447;DHT22;3765;47.962;7.952;2023-03-11T12:03:52;8.00;44.30
7447;DHT22;3765;47.962;7.952;2023-03-11T12:06:28;7.90;45.30
7447;DHT22;3765;47.962;7.952;2023-03-11T12:09:05;8.20;45.10
7447;DHT22;3765;47.962;7.952;2023-03-11T12:11:46;8.30;44.90
7447;DHT22;3765;47.962;7.952;2023-03-11T12:14:20;7.80;44.60
7447;DHT22;3765;47.962;7.952;2023-03-11T12:16:55;8.00;45.00
7447;DHT22;3765;47.962;7.952;2023-03-11T12:19:38;7.70;44.80
7447;DHT22;3765;47.962;7.952;2023-03-11T12:22:34;7.40;44.90
7447;DHT22;3765;47.962;7.952;2023-03-11T12:25:18;7.80;45.00
7447;DHT22;3765;47.962;7.952;2023-03-11T12:27:53;8.10;44.90
7447;DHT22;3765;47.962;7.952;2023-03-11T12:30:27;8.00;44.80
7447;DHT22;3765;47.962;7.952;2023-03-11T12:32:59;7.70;44.70
7447;DHT22;3765;47.962;7.952;2023-03-11T12:35:30;7.70;44.60
7447;DHT22;3765;47.962;7.952;2023-03-11T12:38:06;7.40;44.80
7447;DHT22;3765;47.962;7.952;2023-03-11T12:40:56;7.70;45.00
7447;DHT22;3765;47.962;7.952;2023-03-11T12:43:57;7.80;44.90
7447;DHT22;3765;47.962;7.952;2023-03-11T12:49:27;8.60;44.30
7447;DHT22;3765;47.962;7.952;2023-03-11T12:52:01;8.80;45.10
7447;DHT22;3765;47.962;7.952;2023-03-11T12:54:31;9.60;44.60
7447;DHT22;3765;47.962;7.952;2023-03-11T12:57:00;9.90;44.10
7447;DHT22;3765;47.962;7.952;2023-03-11T13:02:50;9.10;43.90
7447;DHT22;3765;47.962;7.952;2023-03-11T13:05:27;8.70;43.90
7447;DHT22;3765;47.962;7.952;2023-03-11T13:07:59;8.90;44.00
7447;DHT22;3765;47.962;7.952;2023-03-11T13:10:36;9.40;43.90
7447;DHT22;3765;47.962;7.952;2023-03-11T13:13:35;9.60;43.70
7447;DHT22;3765;47.962;7.952;2023-03-11T13:19:35;8.80;42.60
7447;DHT22;3765;47.962;7.952;2023-03-11T13:22:09;9.00;43.70
7447;DHT22;3765;47.962;7.952;2023-03-11T13:24:56;9.30;42.90
7447;DHT22;3765;47.962;7.952;2023-03-11T13:27:41;9.20;43.00
7447;DHT22;3765;47.962;7.952;2023-03-11T13:30:17;9.30;42.90
7447;DHT22;3765;47.962;7.952;2023-03-11T13:33:00;10.00;42.40
7447;DHT22;3765;47.962;7.952;2023-03-11T13:35:49;9.50;42.10
7447;DHT22;3765;47.962;7.952;2023-03-11T13:38:37;9.10;42.20
7447;DHT22;3765;47.962;7.952;2023-03-11T13:41:14;8.70;42.20
7447;DHT22;3765;47.962;7.952;2023-03-11T13:43:48;8.30;42.60
7447;DHT22;3765;47.962;7.952;2023-03-11T13:46:26;8.70;43.10
7447;DHT22;3765;47.962;7.952;2023-03-11T13:49:02;8.50;41.80
7447;DHT22;3765;47.962;7.952;2023-03-11T13:51:37;8.40;42.60
7447;DHT22;3765;47.962;7.952;2023-03-11T13:54:24;8.30;42.50
7447;DHT22;3765;47.962;7.952;2023-03-11T13:56:57;9.30;42.70
7447;DHT22;3765;47.962;7.952;2023-03-11T13:59:29;9.00;42.00
7447;DHT22;3765;47.962;7.952;2023-03-11T14:01:59;9.80;42.40
7447;DHT22;3765;47.962;7.952;2023-03-11T14:04:31;10.20;41.80
7447;DHT22;3765;47.962;7.952;2023-03-11T14:07:11;10.20;41.40
7447;DHT22;3765;47.962;7.952;2023-03-11T14:09:41;10.30;40.70
7447;DHT22;3765;47.962;7.952;2023-03-11T14:12:11;9.60;40.70
7447;DHT22;3765;47.962;7.952;2023-03-11T14:14:50;9.60;41.30
7447;DHT22;3765;47.962;7.952;2023-03-11T14:17:21;10.10;41.00
7447;DHT22;3765;47.962;7.952;2023-03-11T14:20:04;10.10;40.50
7447;DHT22;3765;47.962;7.952;2023-03-11T14:22:37;10.20;40.60
7447;DHT22;3765;47.962;7.952;2023-03-11T14:25:08;10.60;40.80
7447;DHT22;3765;47.962;7.952;2023-03-11T14:27:49;10.90;40.60
7447;DHT22;3765;47.962;7.952;2023-03-11T14:30:23;11.20;40.00
7447;DHT22;3765;47.962;7.952;2023-03-11T14:32:57;11.30;39.90
7447;DHT22;3765;47.962;7.952;2023-03-11T14:35:29;10.80;40.10
7447;DHT22;3765;47.962;7.952;2023-03-11T14:38:01;11.00;40.00
7447;DHT22;3765;47.962;7.952;2023-03-11T14:40:31;10.50;39.60
7447;DHT22;3765;47.962;7.952;2023-03-11T14:43:03;10.00;39.80
7447;DHT22;3765;47.962;7.952;2023-03-11T14:45:34;9.70;40.50
7447;DHT22;3765;47.962;7.952;2023-03-11T14:48:05;9.70;40.20
7447;DHT22;3765;47.962;7.952;2023-03-11T14:50:36;9.50;40.20
7447;DHT22;3765;47.962;7.952;2023-03-11T14:53:07;9.40;40.80
7447;DHT22;3765;47.962;7.952;2023-03-11T14:55:45;9.70;41.00
7447;DHT22;3765;47.962;7.952;2023-03-11T14:58:21;9.90;40.90
7447;DHT22;3765;47.962;7.952;2023-03-11T15:00:57;9.40;40.70
7447;DHT22;3765;47.962;7.952;2023-03-11T15:03:29;9.10;40.90
7447;DHT22;3765;47.962;7.952;2023-03-11T15:06:03;8.70;41.10
7447;DHT22;3765;47.962;7.952;2023-03-11T15:08:36;8.70;41.80
7447;DHT22;3765;47.962;7.952;2023-03-11T15:11:21;8.80;41.90
7447;DHT22;3765;47.962;7.952;2023-03-11T15:13:51;8.70;41.90
7447;DHT22;3765;47.962;7.952;2023-03-11T15:16:23;9.00;41.80
7447;DHT22;3765;47.962;7.952;2023-03-11T15:18:53;8.80;41.40
7447;DHT22;3765;47.962;7.952;2023-03-11T15:21:25;8.50;41.90
7447;DHT22;3765;47.962;7.952;2023-03-11T15:24:00;8.60;42.00
7447;DHT22;3765;47.962;7.952;2023-03-11T15:26:32;8.60;42.00
7447;DHT22;3765;47.962;7.952;2023-03-11T15:29:12;8.20;41.80
7447;DHT22;3765;47.962;7.952;2023-03-11T15:31:42;8.30;42.50
7447;DHT22;3765;47.962;7.952;2023-03-11T15:34:26;8.10;42.40
7447;DHT22;3765;47.962;7.952;2023-03-11T15:37:04;8.20;42.40
7447;DHT22;3765;47.962;7.952;2023-03-11T15:39:47;8.30;42.60
7447;DHT22;3765;47.962;7.952;2023-03-11T15:42:19;8.40;42.90
7447;DHT22;3765;47.962;7.952;2023-03-11T15:45:14;8.20;42.70
7447;DHT22;3765;47.962;7.952;2023-03-11T15:47:44;8.00;42.70
7447;DHT22;3765;47.962;7.952;2023-03-11T15:50:22;8.00;43.00
7447;DHT22;3765;47.962;7.952;2023-03-11T15:53:14;7.80;43.20
7447;DHT22;3765;47.962;7.952;2023-03-11T15:55:54;7.70;43.40
7447;DHT22;3765;47.962;7.952;2023-03-11T15:58:34;7.50;43.80
7447;DHT22;3765;47.962;7.952;2023-03-11T16:01:04;7.40;44.30
7447;DHT22;3765;47.962;7.952;2023-03-11T16:03:33;7.50;44.40
7447;DHT22;3765;47.962;7.952;2023-03-11T16:06:02;7.50;44.20
7447;DHT22;3765;47.962;7.952;2023-03-11T16:08:31;7.40;44.50
7447;DHT22;3765;47.962;7.952;2023-03-11T16:11:03;7.30;44.60
7447;DHT22;3765;47.962;7.952;2023-03-11T16:13:33;7.00;44.70
7447;DHT22;3765;47.962;7.952;2023-03-11T16:16:02;6.90;44.90
7447;DHT22;3765;47.962;7.952;2023-03-11T16:18:31;6.90;45.20
7447;DHT22;3765;47.962;7.952;2023-03-11T16:21:02;7.10;45.40
7447;DHT22;3765;47.962;7.952;2023-03-11T16:23:36;7.30;45.40
7447;DHT22;3765;47.962;7.952;2023-03-11T16:26:21;7.10;45.20
7447;DHT22;3765;47.962;7.952;2023-03-11T16:28:51;7.00;45.60
7447;DHT22;3765;47.962;7.952;2023-03-11T16:31:20;7.00;45.90
7447;DHT22;3765;47.962;7.952;2023-03-11T16:33:48;6.90;45.90
7447;DHT22;3765;47.962;7.952;2023-03-11T16:36:18;7.00;46.30
7447;DHT22;3765;47.962;7.952;2023-03-11T16:38:49;7.00;46.30
7447;DHT22;3765;47.962;7.952;2023-03-11T16:41:19;7.00;46.30
7447;DHT22;3765;47.962;7.952;2023-03-11T16:43:49;7.10;46.50
7447;DHT22;3765;47.962;7.952;2023-03-11T16:46:18;7.10;46.40
7447;DHT22;3765;47.962;7.952;2023-03-11T16:48:47;7.10;46.50
7447;DHT22;3765;47.962;7.952;2023-03-11T16:51:17;7.10;46.50
7447;DHT22;3765;47.962;7.952;2023-03-11T16:53:46;7.10;46.70
7447;DHT22;3765;47.962;7.952;2023-03-11T16:56:16;7.20;46.70
7447;DHT22;3765;47.962;7.952;2023-03-11T16:58:46;7.30;46.70
7447;DHT22;3765;47.962;7.952;2023-03-11T17:01:15;7.30;46.70
7447;DHT22;3765;47.962;7.952;2023-03-11T17:03:45;7.20;46.60
7447;DHT22;3765;47.962;7.952;2023-03-11T17:06:16;7.20;46.70
7447;DHT22;3765;47.962;7.952;2023-03-11T17:08:45;7.20;46.90
7447;DHT22;3765;47.962;7.952;2023-03-11T17:11:17;7.20;46.90